Time,TemperatureF,DewpointF,PressureIn,WindDirection,WindDirectionDegrees,WindSpeedMPH,WindSpeedGustMPH,Humidity,HourlyPrecipIn,Conditions,Clouds,dailyrainin,SoftwareType,DateUTC
2012-03-01 00:02:00,41.9,35.2,29.91,NW,323,0.0,0.0,77,0.00,,,0.00,VWS V13.01,2012-03-01 06:02:00,
2012-03-01 00:08:00,41.7,35.0,29.91,NW,323,0.0,0.0,77,0.00,,,0.00,VWS V13.01,2012-03-01 06:08:00,
2012-03-01 00:13:00,41.5,35.5,29.91,NW,323,0.0,0.0,79,0.00,,,0.00,VWS V13.01,2012-03-01 06:13:00,
2012-03-01 00:18:00,41.4,36.0,29.91,North,354,0.0,0.0,81,0.00,,,0.00,VWS V13.01,2012-03-01 06:18:00,
2012-03-01 00:23:00,41.0,36.2,29.91,NNE,14,0.0,0.0,83,0.00,,,0.00,VWS V13.01,2012-03-01 06:23:00,
2012-03-01 00:28:00,40.6,35.9,29.91,NNE,14,0.0,0.0,83,0.00,,,0.00,VWS V13.01,2012-03-01 06:28:00,
2012-03-01 00:33:00,40.3,36.1,29.91,NNE,14,0.0,0.0,85,0.00,,,0.00,VWS V13.01,2012-03-01 06:33:00,
2012-03-01 00:38:00,39.7,36.2,29.91,NNE,14,0.0,0.0,87,0.00,,,0.00,VWS V13.01,2012-03-01 06:38:00,
2012-03-01 00:43:00,39.4,36.1,29.91,NNE,29,2.7,3.1,88,0.00,,,0.00,VWS V13.01,2012-03-01 06:43:00,
2012-03-01 00:48:00,39.0,36.3,29.91,NE,41,2.7,2.7,90,0.00,,,0.00,VWS V13.01,2012-03-01 06:48:00,
2012-03-01 00:53:00,38.8,36.4,29.91,NE,41,0.0,0.0,91,0.00,,,0.00,VWS V13.01,2012-03-01 06:53:00,
2012-03-01 00:58:00,38.8,36.4,29.91,NE,41,0.0,0.0,91,0.00,,,0.00,VWS V13.01,2012-03-01 06:58:00,
2012-03-01 01:03:00,38.8,36.4,29.91,NE,41,0.0,0.0,91,0.00,,,0.00,VWS V13.01,2012-03-01 07:03:00,
2012-03-01 01:08:00,38.7,36.0,29.91,NNW,345,0.0,0.0,90,0.00,,,0.00,VWS V13.01,2012-03-01 07:08:00,
2012-03-01 01:13:00,38.7,35.7,29.91,NNW,345,0.0,0.0,89,0.00,,,0.00,VWS V13.01,2012-03-01 07:13:00,
2012-03-01 01:18:00,38.7,35.7,29.91,NNW,345,0.0,0.0,89,0.00,,,0.00,VWS V13.01,2012-03-01 07:18:00,
2012-03-01 01:23:00,38.5,35.8,29.91,NNW,345,0.0,0.0,90,0.00,,,0.00,VWS V13.01,2012-03-01 07:23:00,
2012-03-01 01:28:00,38.3,35.6,29.91,NNW,345,0.0,0.0,90,0.00,,,0.00,VWS V13.01,2012-03-01 07:28:00,
2012-03-01 01:33:00,38.1,35.5,29.91,NNW,346,0.0,0.0,90,0.00,,,0.00,VWS V13.01,2012-03-01 07:33:00,
2012-03-01 01:38:00,38.1,34.9,29.91,NNW,345,0.0,0.0,88,0.00,,,0.00,VWS V13.01,2012-03-01 07:38:00,
2012-03-01 01:43:00,38.1,34.9,29.91,NNW,345,0.0,0.0,88,0.00,,,0.00,VWS V13.01,2012-03-01 07:43:00,
2012-03-01 01:48:00,38.1,34.9,29.91,NNW,345,0.0,0.0,88,0.00,,,0.00,VWS V13.01,2012-03-01 07:48:00,
2012-03-01 01:53:00,37.9,35.0,29.91,NNW,346,0.0,0.0,89,0.00,,,0.00,VWS V13.01,2012-03-01 07:53:00,
2012-03-01 01:58:00,37.8,34.8,29.91,NNW,346,0.0,0.0,89,0.00,,,0.00,VWS V13.01,2012-03-01 07:58:00,
2012-03-01 02:03:00,37.4,35.3,29.91,North,7,0.0,0.0,92,0.00,,,0.00,VWS V13.01,2012-03-01 08:03:00,
2012-03-01 02:08:00,37.2,35.4,29.91,North,7,0.0,0.0,93,0.00,,,0.00,VWS V13.01,2012-03-01 08:08:00,
2012-03-01 02:13:00,36.9,35.0,29.91,NNE,19,0.0,0.0,93,0.00,,,0.00,VWS V13.01,2012-03-01 08:13:00,
2012-03-01 02:18:00,36.7,35.1,29.91,NNE,19,0.0,0.0,94,0.00,,,0.00,VWS V13.01,2012-03-01 08:18:00,
2012-03-01 02:23:00,36.7,35.7,29.91,NNE,19,0.0,0.0,96,0.00,,,0.00,VWS V13.01,2012-03-01 08:23:00,
2012-03-01 02:28:00,36.7,35.9,29.91,NNE,19,0.0,0.0,97,0.00,,,0.00,VWS V13.01,2012-03-01 08:28:00,
2012-03-01 02:33:00,36.5,36.0,29.91,NNE,19,0.0,0.0,98,0.00,,,0.00,VWS V13.01,2012-03-01 08:33:00,
2012-03-01 02:38:00,36.3,35.8,29.91,NNE,19,0.0,0.0,98,0.00,,,0.00,VWS V13.01,2012-03-01 08:38:00,
2012-03-01 02:43:00,36.1,35.6,29.91,NNE,19,0.0,0.0,98,0.00,,,0.00,VWS V13.01,2012-03-01 08:43:00,
2012-03-01 02:48:00,36.1,35.6,29.91,NNE,19,0.0,0.0,98,0.00,,,0.00,VWS V13.01,2012-03-01 08:48:00,
2012-03-01 02:53:00,36.0,35.7,29.91,NNE,19,0.0,0.0,99,0.00,,,0.00,VWS V13.01,2012-03-01 08:53:00,
2012-03-01 02:58:00,35.8,35.5,29.91,NNE,19,0.0,0.0,99,0.00,,,0.00,VWS V13.01,2012-03-01 08:58:00,
2012-03-01 03:03:00,35.8,35.5,29.91,NNE,19,0.0,0.0,99,0.00,,,0.00,VWS V13.01,2012-03-01 09:03:00,
2012-03-01 03:08:00,36.0,35.7,29.91,NNE,19,0.0,0.0,99,0.00,,,0.00,VWS V13.01,2012-03-01 09:08:00,
2012-03-01 03:13:00,36.0,35.7,29.91,NNE,19,0.0,0.0,99,0.00,,,0.00,VWS V13.01,2012-03-01 09:13:00,
2012-03-01 03:18:00,36.0,35.5,29.91,NNE,19,0.0,0.0,98,0.00,,,0.00,VWS V13.01,2012-03-01 09:18:00,
2012-03-01 03:23:00,36.0,35.5,29.91,NNE,19,0.0,0.0,98,0.00,,,0.00,VWS V13.01,2012-03-01 09:23:00,
2012-03-01 03:29:00,36.0,35.5,29.91,NNE,19,0.0,0.0,98,0.00,,,0.00,VWS V13.01,2012-03-01 09:29:00,
2012-03-01 03:34:00,35.8,35.0,29.91,NNE,19,0.0,0.0,97,0.00,,,0.00,VWS V13.01,2012-03-01 09:34:00,
2012-03-01 03:39:00,35.8,35.0,29.91,NNE,19,0.0,0.0,97,0.00,,,0.00,VWS V13.01,2012-03-01 09:39:00,
2012-03-01 03:44:00,35.8,34.8,29.91,NNE,19,0.0,0.0,96,0.00,,,0.00,VWS V13.01,2012-03-01 09:44:00,
2012-03-01 03:49:00,35.6,34.6,29.91,NNE,19,0.0,0.0,96,0.00,,,0.00,VWS V13.01,2012-03-01 09:49:00,
2012-03-01 03:54:00,35.8,34.8,29.91,NNE,19,0.0,0.0,96,0.00,,,0.00,VWS V13.01,2012-03-01 09:54:00,
2012-03-01 03:59:00,35.8,34.8,29.91,NNE,19,0.0,0.0,96,0.00,,,0.00,VWS V13.01,2012-03-01 09:59:00,
2012-03-01 04:04:00,35.8,34.2,29.91,NNE,19,0.0,0.0,94,0.00,,,0.00,VWS V13.01,2012-03-01 10:04:00,
2012-03-01 04:09:00,35.8,34.0,29.91,NNE,19,0.0,0.0,93,0.00,,,0.00,VWS V13.01,2012-03-01 10:09:00,
2012-03-01 04:14:00,35.6,34.0,29.91,NNE,19,0.0,0.0,94,0.00,,,0.00,VWS V13.01,2012-03-01 10:14:00,
2012-03-01 04:19:00,35.6,34.6,29.91,NNE,19,0.0,0.0,96,0.00,,,0.00,VWS V13.01,2012-03-01 10:19:00,
2012-03-01 04:24:00,35.4,34.4,29.91,NNE,22,0.0,0.0,96,0.00,,,0.00,VWS V13.01,2012-03-01 10:24:00,
2012-03-01 04:29:00,35.2,34.2,29.91,NE,39,2.7,3.1,96,0.00,,,0.00,VWS V13.01,2012-03-01 10:29:00,
2012-03-01 04:34:00,34.9,34.1,29.91,NE,40,2.7,3.6,97,0.00,,,0.00,VWS V13.01,2012-03-01 10:34:00,
2012-03-01 04:39:00,34.7,34.7,29.91,NNE,28,2.7,2.7,100,0.00,,,0.00,VWS V13.01,2012-03-01 10:39:00,
2012-03-01 04:44:00,34.7,34.7,29.88,NE,34,0.0,0.0,100,0.00,,,0.00,VWS V13.01,2012-03-01 10:44:00,
2012-03-01 04:49:00,34.7,34.7,29.88,NE,34,0.0,0.0,100,0.00,,,0.00,VWS V13.01,2012-03-01 10:49:00,
2012-03-01 04:54:00,34.5,34.5,29.88,NE,34,0.0,0.0,100,0.00,,,0.00,VWS V13.01,2012-03-01 10:54:00,
2012-03-01 04:59:00,34.5,34.5,29.88,NE,34,0.0,0.0,100,0.00,,,0.00,VWS V13.01,2012-03-01 10:59:00,
2012-03-01 05:04:00,34.5,34.5,29.88,NE,34,0.0,0.0,100,0.00,,,0.00,VWS V13.01,2012-03-01 11:04:00,
2012-03-01 05:09:00,34.5,34.5,29.88,NE,34,0.0,0.0,100,0.00,,,0.00,VWS V13.01,2012-03-01 11:09:00,
2012-03-01 05:14:00,34.5,34.5,29.88,NE,34,0.0,0.0,100,0.00,,,0.00,VWS V13.01,2012-03-01 11:14:00,
2012-03-01 05:19:00,34.5,34.5,29.88,NE,35,0.0,0.0,100,0.00,,,0.00,VWS V13.01,2012-03-01 11:19:00,
2012-03-01 05:24:00,34.7,34.7,29.88,NNE,22,4.0,4.0,100,0.00,,,0.00,VWS V13.01,2012-03-01 11:24:00,
2012-03-01 05:29:00,34.9,34.1,29.88,NNE,14,0.0,0.0,97,0.00,,,0.00,VWS V13.01,2012-03-01 11:29:00,
2012-03-01 05:34:00,34.9,33.9,29.88,NNE,14,0.0,0.0,96,0.00,,,0.00,VWS V13.01,2012-03-01 11:34:00,
2012-03-01 05:39:00,34.7,33.7,29.88,NNE,14,0.0,0.0,96,0.00,,,0.00,VWS V13.01,2012-03-01 11:39:00,
2012-03-01 05:44:00,34.5,33.8,29.88,NNE,17,0.0,2.2,97,0.00,,,0.00,VWS V13.01,2012-03-01 11:44:00,
2012-03-01 05:49:00,34.5,34.3,29.88,NNE,17,0.0,0.0,99,0.00,,,0.00,VWS V13.01,2012-03-01 11:49:00,
2012-03-01 05:54:00,34.3,33.8,29.88,North,10,0.0,0.0,98,0.00,,,0.00,VWS V13.01,2012-03-01 11:54:00,
2012-03-01 05:59:00,34.3,34.1,29.88,NNE,16,3.1,3.1,99,0.00,,,0.00,VWS V13.01,2012-03-01 11:59:00,
2012-03-01 06:04:00,34.3,34.3,29.88,NNE,25,2.2,2.2,100,0.00,,,0.00,VWS V13.01,2012-03-01 12:04:00,
2012-03-01 06:09:00,34.2,34.2,29.88,NNE,24,0.0,0.0,100,0.00,,,0.00,VWS V13.01,2012-03-01 12:09:00,
2012-03-01 06:14:00,34.0,34.0,29.88,NNE,24,0.0,0.0,100,0.00,,,0.00,VWS V13.01,2012-03-01 12:14:00,
2012-03-01 06:19:00,34.0,34.0,29.88,NNE,24,0.0,0.0,100,0.00,,,0.00,VWS V13.01,2012-03-01 12:19:00,
2012-03-01 06:24:00,34.0,34.0,29.88,NNE,25,0.0,0.0,100,0.00,,,0.00,VWS V13.01,2012-03-01 12:24:00,
2012-03-01 06:29:00,34.0,34.0,29.88,NNE,24,0.0,0.0,100,0.00,,,0.00,VWS V13.01,2012-03-01 12:29:00,
2012-03-01 06:34:00,34.0,34.0,29.88,NNE,25,0.0,0.0,100,0.00,,,0.00,VWS V13.01,2012-03-01 12:34:00,
2012-03-01 06:39:00,34.0,34.0,29.88,NNE,24,0.0,0.0,100,0.00,,,0.00,VWS V13.01,2012-03-01 12:39:00,
2012-03-01 06:44:00,34.0,34.0,29.88,NNE,24,0.0,0.0,100,0.00,,,0.00,VWS V13.01,2012-03-01 12:44:00,
2012-03-01 06:49:00,34.0,34.0,29.88,North,355,0.0,0.0,100,0.00,,,0.00,VWS V13.01,2012-03-01 12:49:00,
2012-03-01 06:54:00,34.0,34.0,29.88,North,357,0.0,0.0,100,0.00,,,0.00,VWS V13.01,2012-03-01 12:54:00,
2012-03-01 06:59:00,34.2,34.2,29.88,North,358,0.0,0.0,100,0.00,,,0.00,VWS V13.01,2012-03-01 12:59:00,
2012-03-01 07:04:00,34.2,34.2,29.88,West,270,0.0,0.0,100,0.00,,,0.00,VWS V13.01,2012-03-01 13:04:00,
2012-03-01 07:09:00,34.2,34.2,29.88,West,270,0.0,0.0,100,0.00,,,0.00,VWS V13.01,2012-03-01 13:09:00,
2012-03-01 07:14:00,34.3,33.8,29.88,North,2,0.0,0.0,98,0.00,,,0.00,VWS V13.01,2012-03-01 13:14:00,
2012-03-01 07:19:00,34.9,34.4,29.88,NNE,30,0.0,0.0,98,0.00,,,0.00,VWS V13.01,2012-03-01 13:19:00,
2012-03-01 07:24:00,35.2,34.7,29.88,NNE,31,2.7,2.7,98,0.00,,,0.00,VWS V13.01,2012-03-01 13:24:00,
2012-03-01 07:29:00,35.8,34.8,29.88,NNE,31,2.7,2.7,96,0.00,,,0.00,VWS V13.01,2012-03-01 13:29:00,
2012-03-01 07:34:00,36.3,35.3,29.88,NNE,31,2.2,2.2,96,0.00,,,0.00,VWS V13.01,2012-03-01 13:34:00,
2012-03-01 07:39:00,36.9,35.3,29.88,NNE,32,0.0,0.0,94,0.00,,,0.00,VWS V13.01,2012-03-01 13:39:00,
2012-03-01 07:44:00,37.6,35.5,29.88,NNE,32,0.0,0.0,92,0.00,,,0.00,VWS V13.01,2012-03-01 13:44:00,
2012-03-01 07:49:00,37.9,35.8,29.88,NNE,31,0.0,0.0,92,0.00,,,0.00,VWS V13.01,2012-03-01 13:49:00,
2012-03-01 07:54:00,39.0,35.5,29.88,NNE,31,0.0,0.0,87,0.00,,,0.00,VWS V13.01,2012-03-01 13:54:00,
2012-03-01 07:59:00,40.3,35.5,29.88,NNE,32,0.0,0.0,83,0.00,,,0.00,VWS V13.01,2012-03-01 13:59:00,
2012-03-01 08:04:00,41.5,36.8,29.88,NNE,23,0.0,0.0,83,0.00,,,0.00,VWS V13.01,2012-03-01 14:04:00,
2012-03-01 08:09:00,42.4,36.7,29.88,NNE,12,0.0,0.0,80,0.00,,,0.00,VWS V13.01,2012-03-01 14:09:00,
2012-03-01 08:14:00,43.3,36.0,29.91,North,4,0.0,0.0,75,0.00,,,0.00,VWS V13.01,2012-03-01 14:14:00,
2012-03-01 08:19:00,44.6,34.7,29.91,North,7,0.0,2.2,68,0.00,,,0.00,VWS V13.01,2012-03-01 14:19:00,
2012-03-01 08:24:00,45.7,33.8,29.91,NNE,27,3.1,3.6,63,0.00,,,0.00,VWS V13.01,2012-03-01 14:24:00,
2012-03-01 08:29:00,46.8,34.4,29.91,NNE,19,2.7,2.7,62,0.00,,,0.00,VWS V13.01,2012-03-01 14:29:00,
2012-03-01 08:34:00,47.5,35.1,29.91,NE,38,2.2,3.1,62,0.00,,,0.00,VWS V13.01,2012-03-01 14:34:00,
2012-03-01 08:39:00,48.6,34.5,29.91,NNE,23,0.0,0.0,58,0.00,,,0.00,VWS V13.01,2012-03-01 14:39:00,
2012-03-01 08:44:00,50.2,34.7,29.88,NE,39,3.6,3.6,55,0.00,,,0.00,VWS V13.01,2012-03-01 14:44:00,
2012-03-01 08:49:00,51.3,34.7,29.88,NNE,22,4.9,5.4,53,0.00,,,0.00,VWS V13.01,2012-03-01 14:49:00,
2012-03-01 08:54:00,52.2,34.6,29.88,NE,44,4.0,5.8,51,0.00,,,0.00,VWS V13.01,2012-03-01 14:54:00,
2012-03-01 08:59:00,53.2,35.6,29.88,NE,48,3.6,3.6,51,0.00,,,0.00,VWS V13.01,2012-03-01 14:59:00,
2012-03-01 09:04:00,54.1,36.4,29.88,NE,38,0.0,3.1,51,0.00,,,0.00,VWS V13.01,2012-03-01 15:04:00,
2012-03-01 09:09:00,55.0,35.7,29.88,NE,48,4.9,4.9,48,0.00,,,0.00,VWS V13.01,2012-03-01 15:09:00,
2012-03-01 09:14:00,55.4,35.0,29.88,NNE,15,3.6,5.4,46,0.00,,,0.00,VWS V13.01,2012-03-01 15:14:00,
2012-03-01 09:19:00,55.9,34.9,29.88,ENE,65,5.4,5.4,45,0.00,,,0.00,VWS V13.01,2012-03-01 15:19:00,
2012-03-01 09:24:00,56.7,35.0,29.88,ENE,65,5.8,7.6,44,0.00,,,0.00,VWS V13.01,2012-03-01 15:24:00,
2012-03-01 09:29:00,56.8,35.2,29.88,NNE,29,5.8,5.8,44,0.00,,,0.00,VWS V13.01,2012-03-01 15:29:00,
2012-03-01 09:34:00,57.2,35.5,29.88,NE,34,5.8,7.2,44,0.00,,,0.00,VWS V13.01,2012-03-01 15:34:00,
2012-03-01 09:39:00,57.4,35.1,29.88,NE,42,6.3,8.1,43,0.00,,,0.00,VWS V13.01,2012-03-01 15:39:00,
2012-03-01 09:44:00,57.9,35.6,29.88,ENE,77,2.7,3.1,43,0.00,,,0.00,VWS V13.01,2012-03-01 15:44:00,
2012-03-01 09:49:00,58.8,35.8,29.88,NE,55,3.6,3.6,42,0.00,,,0.00,VWS V13.01,2012-03-01 15:49:00,
2012-03-01 09:54:00,59.4,36.3,29.88,NE,46,3.6,4.0,42,0.00,,,0.00,VWS V13.01,2012-03-01 15:54:00,
2012-03-01 09:59:00,59.7,36.6,29.88,NW,318,5.4,5.4,42,0.00,,,0.00,VWS V13.01,2012-03-01 15:59:00,
2012-03-01 10:04:00,60.4,36.7,29.88,ENE,65,0.0,3.6,41,0.00,,,0.00,VWS V13.01,2012-03-01 16:04:00,
2012-03-01 10:09:00,61.0,36.5,29.88,NNE,21,3.6,4.0,40,0.00,,,0.00,VWS V13.01,2012-03-01 16:09:00,
2012-03-01 10:14:00,61.5,37.0,29.88,East,85,2.7,2.7,40,0.00,,,0.00,VWS V13.01,2012-03-01 16:14:00,
2012-03-01 10:19:00,62.1,37.5,29.88,ENE,77,4.0,4.0,40,0.00,,,0.00,VWS V13.01,2012-03-01 16:19:00,
2012-03-01 10:24:00,62.2,37.6,29.88,North,350,6.3,6.3,40,0.00,,,0.00,VWS V13.01,2012-03-01 16:24:00,
2012-03-01 10:29:00,62.6,37.3,29.88,NNE,13,5.4,6.7,39,0.00,,,0.00,VWS V13.01,2012-03-01 16:29:00,
2012-03-01 10:34:00,63.1,37.8,29.88,East,89,6.3,7.6,39,0.00,,,0.00,VWS V13.01,2012-03-01 16:34:00,
2012-03-01 10:39:00,64.2,38.8,29.88,NE,44,6.3,8.7,39,0.00,,,0.00,VWS V13.01,2012-03-01 16:39:00,
2012-03-01 10:44:00,64.2,38.8,29.85,ENE,63,4.0,6.3,39,0.00,,,0.00,VWS V13.01,2012-03-01 16:44:00,
2012-03-01 10:49:00,64.8,38.6,29.85,East,86,6.3,6.3,38,0.00,,,0.00,VWS V13.01,2012-03-01 16:49:00,
2012-03-01 10:54:00,65.7,39.4,29.85,NNE,31,5.8,5.8,38,0.00,,,0.00,VWS V13.01,2012-03-01 16:54:00,
2012-03-01 10:59:00,66.0,39.7,29.85,East,95,8.7,8.7,38,0.00,,,0.00,VWS V13.01,2012-03-01 16:59:00,
2012-03-01 11:04:00,65.8,39.5,29.85,East,85,4.0,4.0,38,0.00,,,0.00,VWS V13.01,2012-03-01 17:04:00,
2012-03-01 11:09:00,66.6,40.2,29.85,NE,53,6.3,6.3,38,0.00,,,0.00,VWS V13.01,2012-03-01 17:09:00,
2012-03-01 11:14:00,66.4,39.3,29.83,East,93,4.0,6.3,37,0.00,,,0.00,VWS V13.01,2012-03-01 17:14:00,
2012-03-01 11:19:00,66.6,40.2,29.83,ESE,107,5.8,6.3,38,0.00,,,0.00,VWS V13.01,2012-03-01 17:19:00,
2012-03-01 11:24:00,66.7,39.7,29.83,ENE,77,8.7,9.2,37,0.00,,,0.00,VWS V13.01,2012-03-01 17:24:00,
2012-03-01 11:29:00,66.7,39.7,29.83,East,93,5.8,5.8,37,0.00,,,0.00,VWS V13.01,2012-03-01 17:29:00,
2012-03-01 11:34:00,66.7,40.3,29.83,ESE,120,4.0,6.3,38,0.00,,,0.00,VWS V13.01,2012-03-01 17:34:00,
2012-03-01 11:39:00,66.7,39.7,29.83,ENE,69,8.3,8.3,37,0.00,,,0.00,VWS V13.01,2012-03-01 17:39:00,
2012-03-01 11:44:00,67.1,40.0,29.83,SE,132,6.3,6.3,37,0.00,,,0.00,VWS V13.01,2012-03-01 17:44:00,
2012-03-01 11:49:00,67.3,40.1,29.83,East,100,8.7,10.5,37,0.00,,,0.00,VWS V13.01,2012-03-01 17:49:00,
2012-03-01 11:54:00,67.5,40.3,29.83,SSE,157,7.6,10.5,37,0.00,,,0.00,VWS V13.01,2012-03-01 17:54:00,
2012-03-01 11:59:00,68.5,41.3,29.80,ESE,112,10.1,13.2,37,0.00,,,0.00,VWS V13.01,2012-03-01 17:59:00,
2012-03-01 12:04:00,68.9,41.6,29.80,East,87,10.1,10.1,37,0.00,,,0.00,VWS V13.01,2012-03-01 18:04:00,
2012-03-01 12:09:00,68.9,41.6,29.80,East,98,6.3,8.7,37,0.00,,,0.00,VWS V13.01,2012-03-01 18:09:00,
2012-03-01 12:14:00,68.7,41.4,29.80,ESE,114,7.6,7.6,37,0.00,,,0.00,VWS V13.01,2012-03-01 18:14:00,
2012-03-01 12:19:00,69.4,42.1,29.80,ESE,108,3.6,5.8,37,0.00,,,0.00,VWS V13.01,2012-03-01 18:19:00,
2012-03-01 12:24:00,70.0,42.5,29.80,ENE,72,8.1,8.1,37,0.00,,,0.00,VWS V13.01,2012-03-01 18:24:00,
2012-03-01 12:29:00,70.0,42.5,29.80,ESE,117,5.4,7.6,37,0.00,,,0.00,VWS V13.01,2012-03-01 18:29:00,
2012-03-01 12:34:00,70.0,42.5,29.80,ESE,107,8.7,11.0,37,0.00,,,0.00,VWS V13.01,2012-03-01 18:34:00,
2012-03-01 12:39:00,70.3,42.9,29.80,East,94,5.4,7.6,37,0.00,,,0.00,VWS V13.01,2012-03-01 18:39:00,
2012-03-01 12:44:00,70.5,40.8,29.77,ENE,66,7.6,8.3,34,0.00,,,0.00,VWS V13.01,2012-03-01 18:44:00,
2012-03-01 12:49:00,70.5,40.8,29.77,ESE,114,7.6,8.7,34,0.00,,,0.00,VWS V13.01,2012-03-01 18:49:00,
2012-03-01 12:54:00,70.5,40.8,29.77,ENE,64,5.4,8.1,34,0.00,,,0.00,VWS V13.01,2012-03-01 18:54:00,
2012-03-01 12:59:00,71.2,41.5,29.74,SE,125,8.7,8.7,34,0.00,,,0.00,VWS V13.01,2012-03-01 18:59:00,
2012-03-01 13:04:00,71.2,41.5,29.74,East,89,10.5,10.5,34,0.00,,,0.00,VWS V13.01,2012-03-01 19:04:00,
2012-03-01 13:09:00,71.6,41.8,29.74,ENE,76,8.3,8.7,34,0.00,,,0.00,VWS V13.01,2012-03-01 19:09:00,
2012-03-01 13:14:00,72.0,42.1,29.74,ENE,65,5.4,6.3,34,0.00,,,0.00,VWS V13.01,2012-03-01 19:14:00,
2012-03-01 13:19:00,72.3,42.4,29.74,East,86,6.3,6.3,34,0.00,,,0.00,VWS V13.01,2012-03-01 19:19:00,
2012-03-01 13:24:00,72.9,42.9,29.74,East,92,4.9,9.6,34,0.00,,,0.00,VWS V13.01,2012-03-01 19:24:00,
2012-03-01 13:29:00,73.0,43.0,29.71,East,81,8.7,8.7,34,0.00,,,0.00,VWS V13.01,2012-03-01 19:29:00,
2012-03-01 13:34:00,73.6,42.7,29.71,East,100,5.4,7.6,33,0.00,,,0.00,VWS V13.01,2012-03-01 19:34:00,
2012-03-01 13:39:00,73.8,42.9,29.71,SE,125,3.6,3.6,33,0.00,,,0.00,VWS V13.01,2012-03-01 19:39:00,
2012-03-01 13:44:00,74.3,43.4,29.71,SSE,150,0.0,0.0,33,0.00,,,0.00,VWS V13.01,2012-03-01 19:44:00,
2012-03-01 13:49:00,74.8,42.2,29.71,ENE,59,5.8,8.3,31,0.00,,,0.00,VWS V13.01,2012-03-01 19:49:00,
2012-03-01 13:54:00,75.0,42.4,29.71,ESE,119,4.0,6.3,31,0.00,,,0.00,VWS V13.01,2012-03-01 19:54:00,
2012-03-01 13:59:00,75.4,41.8,29.71,SSE,147,7.6,8.1,30,0.00,,,0.00,VWS V13.01,2012-03-01 19:59:00,
2012-03-01 14:04:00,75.4,41.8,29.71,South,183,5.4,7.2,30,0.00,,,0.00,VWS V13.01,2012-03-01 20:04:00,
2012-03-01 14:09:00,76.3,42.6,29.71,South,180,6.3,6.3,30,0.00,,,0.00,VWS V13.01,2012-03-01 20:09:00,
2012-03-01 14:14:00,76.3,42.6,29.68,SE,126,2.2,2.7,30,0.00,,,0.00,VWS V13.01,2012-03-01 20:14:00,
2012-03-01 14:19:00,77.2,43.4,29.68,ESE,111,2.7,2.7,30,0.00,,,0.00,VWS V13.01,2012-03-01 20:19:00,
2012-03-01 14:24:00,77.5,43.7,29.68,South,174,8.1,8.1,30,0.00,,,0.00,VWS V13.01,2012-03-01 20:24:00,
2012-03-01 14:29:00,77.4,43.5,29.68,SE,125,7.2,10.5,30,0.00,,,0.00,VWS V13.01,2012-03-01 20:29:00,
2012-03-01 14:34:00,77.2,43.4,29.68,South,173,6.3,6.3,30,0.00,,,0.00,VWS V13.01,2012-03-01 20:34:00,
2012-03-01 14:39:00,77.5,43.7,29.68,South,183,5.8,8.7,30,0.00,,,0.00,VWS V13.01,2012-03-01 20:39:00,
2012-03-01 14:44:00,77.7,43.8,29.68,SSE,166,7.2,8.3,30,0.00,,,0.00,VWS V13.01,2012-03-01 20:44:00,
2012-03-01 14:49:00,77.7,43.8,29.68,SSE,153,5.4,5.4,30,0.00,,,0.00,VWS V13.01,2012-03-01 20:49:00,
2012-03-01 14:54:00,78.1,44.2,29.68,SSW,201,8.3,8.3,30,0.00,,,0.00,VWS V13.01,2012-03-01 20:54:00,
2012-03-01 14:59:00,78.8,44.8,29.65,SSE,154,5.4,6.3,30,0.00,,,0.00,VWS V13.01,2012-03-01 20:59:00,
2012-03-01 15:04:00,79.2,45.1,29.65,ESE,121,2.7,4.0,30,0.00,,,0.00,VWS V13.01,2012-03-01 21:04:00,
2012-03-01 15:09:00,79.3,45.2,29.65,South,186,5.4,5.8,30,0.00,,,0.00,VWS V13.01,2012-03-01 21:09:00,
2012-03-01 15:14:00,79.3,45.2,29.65,South,191,8.1,8.1,30,0.00,,,0.00,VWS V13.01,2012-03-01 21:14:00,
2012-03-01 15:19:00,79.2,45.1,29.65,South,173,9.2,9.2,30,0.00,,,0.00,VWS V13.01,2012-03-01 21:19:00,
2012-03-01 15:24:00,79.3,45.2,29.65,South,176,10.5,13.6,30,0.00,,,0.00,VWS V13.01,2012-03-01 21:24:00,
2012-03-01 15:29:00,79.2,45.1,29.65,SSW,196,5.4,6.7,30,0.00,,,0.00,VWS V13.01,2012-03-01 21:29:00,
2012-03-01 15:34:00,79.3,45.2,29.65,South,175,12.3,12.3,30,0.00,,,0.00,VWS V13.01,2012-03-01 21:34:00,
2012-03-01 15:39:00,79.5,45.4,29.65,SSE,153,10.5,14.1,30,0.00,,,0.00,VWS V13.01,2012-03-01 21:39:00,
2012-03-01 15:44:00,79.3,45.2,29.65,South,183,12.8,15.4,30,0.00,,,0.00,VWS V13.01,2012-03-01 21:44:00,
2012-03-01 15:49:00,79.2,45.1,29.65,SSW,205,12.3,12.3,30,0.00,,,0.00,VWS V13.01,2012-03-01 21:49:00,
2012-03-01 15:54:00,79.0,44.9,29.65,South,186,14.5,17.0,30,0.00,,,0.00,VWS V13.01,2012-03-01 21:54:00,
2012-03-01 15:59:00,78.8,44.8,29.65,SSE,168,11.0,14.5,30,0.00,,,0.00,VWS V13.01,2012-03-01 21:59:00,
2012-03-01 16:04:00,79.0,44.9,29.65,South,185,16.3,16.3,30,0.00,,,0.00,VWS V13.01,2012-03-01 22:04:00,
2012-03-01 16:09:00,78.8,44.8,29.65,SSE,168,6.3,9.2,30,0.00,,,0.00,VWS V13.01,2012-03-01 22:09:00,
2012-03-01 16:14:00,78.6,44.6,29.62,SSW,195,11.4,12.3,30,0.00,,,0.00,VWS V13.01,2012-03-01 22:14:00,
2012-03-01 16:19:00,78.6,44.6,29.62,SSE,160,15.4,15.4,30,0.00,,,0.00,VWS V13.01,2012-03-01 22:19:00,
2012-03-01 16:24:00,78.6,44.6,29.62,SSE,167,12.8,12.8,30,0.00,,,0.00,VWS V13.01,2012-03-01 22:24:00,
2012-03-01 16:29:00,78.4,44.5,29.62,South,188,6.3,10.1,30,0.00,,,0.00,VWS V13.01,2012-03-01 22:29:00,
2012-03-01 16:34:00,78.4,44.5,29.62,SSW,204,8.7,10.5,30,0.00,,,0.00,VWS V13.01,2012-03-01 22:34:00,
2012-03-01 16:39:00,78.4,44.5,29.62,SSW,194,10.1,10.5,30,0.00,,,0.00,VWS V13.01,2012-03-01 22:39:00,
2012-03-01 16:44:00,78.4,44.5,29.62,South,169,8.3,8.3,30,0.00,,,0.00,VWS V13.01,2012-03-01 22:44:00,
2012-03-01 16:49:00,78.4,44.5,29.62,South,175,4.9,5.8,30,0.00,,,0.00,VWS V13.01,2012-03-01 22:49:00,
2012-03-01 16:54:00,78.3,44.3,29.62,South,183,5.4,7.6,30,0.00,,,0.00,VWS V13.01,2012-03-01 22:54:00,
2012-03-01 16:59:00,78.1,44.2,29.62,SSW,198,5.4,5.4,30,0.00,,,0.00,VWS V13.01,2012-03-01 22:59:00,
2012-03-01 17:04:00,77.9,44.0,29.62,South,183,8.1,8.1,30,0.00,,,0.00,VWS V13.01,2012-03-01 23:04:00,
2012-03-01 17:09:00,77.7,43.8,29.62,South,189,6.3,6.3,30,0.00,,,0.00,VWS V13.01,2012-03-01 23:09:00,
2012-03-01 17:14:00,77.5,43.7,29.62,South,177,7.6,7.6,30,0.00,,,0.00,VWS V13.01,2012-03-01 23:14:00,
2012-03-01 17:19:00,77.4,43.5,29.62,South,169,4.0,4.0,30,0.00,,,0.00,VWS V13.01,2012-03-01 23:19:00,
2012-03-01 17:24:00,77.2,43.4,29.62,SSE,150,4.0,6.3,30,0.00,,,0.00,VWS V13.01,2012-03-01 23:24:00,
2012-03-01 17:29:00,77.0,43.2,29.62,South,173,5.4,8.7,30,0.00,,,0.00,VWS V13.01,2012-03-01 23:29:00,
2012-03-01 17:34:00,77.0,43.2,29.62,South,178,5.8,5.8,30,0.00,,,0.00,VWS V13.01,2012-03-01 23:34:00,
2012-03-01 17:39:00,76.6,42.9,29.62,SSE,167,6.7,7.2,30,0.00,,,0.00,VWS V13.01,2012-03-01 23:39:00,
2012-03-01 17:44:00,76.5,42.8,29.62,South,178,5.4,5.8,30,0.00,,,0.00,VWS V13.01,2012-03-01 23:44:00,
2012-03-01 17:49:00,76.1,42.5,29.62,SSE,164,3.1,4.9,30,0.00,,,0.00,VWS V13.01,2012-03-01 23:49:00,
2012-03-01 17:54:00,75.9,42.3,29.62,SSE,165,3.6,5.8,30,0.00,,,0.00,VWS V13.01,2012-03-01 23:54:00,
2012-03-01 17:59:00,75.4,41.8,29.62,SE,127,2.7,3.1,30,0.00,,,0.00,VWS V13.01,2012-03-01 23:59:00,
2012-03-01 18:05:00,74.7,42.0,29.62,SSE,158,3.1,3.1,31,0.00,,,0.00,VWS V13.01,2012-03-02 00:05:00,
2012-03-01 18:10:00,74.5,41.9,29.62,SE,125,2.7,3.1,31,0.00,,,0.00,VWS V13.01,2012-03-02 00:10:00,
2012-03-01 18:15:00,74.1,41.6,29.59,ESE,117,2.7,3.6,31,0.00,,,0.00,VWS V13.01,2012-03-02 00:15:00,
2012-03-01 18:20:00,73.8,41.3,29.59,SE,128,2.7,2.7,31,0.00,,,0.00,VWS V13.01,2012-03-02 00:20:00,
2012-03-01 18:25:00,73.6,41.1,29.59,ESE,108,2.7,4.0,31,0.00,,,0.00,VWS V13.01,2012-03-02 00:25:00,
2012-03-01 18:30:00,73.2,40.8,29.59,ESE,108,2.2,3.1,31,0.00,,,0.00,VWS V13.01,2012-03-02 00:30:00,
2012-03-01 18:35:00,72.9,40.5,29.59,ESE,120,3.6,3.6,31,0.00,,,0.00,VWS V13.01,2012-03-02 00:35:00,
2012-03-01 18:40:00,72.5,40.2,29.59,ESE,118,0.0,3.6,31,0.00,,,0.00,VWS V13.01,2012-03-02 00:40:00,
2012-03-01 18:45:00,72.3,42.4,29.62,ESE,116,2.7,2.7,34,0.00,,,0.00,VWS V13.01,2012-03-02 00:45:00,
2012-03-01 18:50:00,72.0,42.1,29.62,SE,127,0.0,0.0,34,0.00,,,0.00,VWS V13.01,2012-03-02 00:50:00,
2012-03-01 18:55:00,71.6,41.8,29.62,ESE,116,0.0,0.0,34,0.00,,,0.00,VWS V13.01,2012-03-02 00:55:00,
2012-03-01 19:00:00,71.4,41.6,29.62,ESE,109,2.7,2.7,34,0.00,,,0.00,VWS V13.01,2012-03-02 01:00:00,
2012-03-01 19:05:00,70.9,41.1,29.62,ESE,123,2.7,3.1,34,0.00,,,0.00,VWS V13.01,2012-03-02 01:05:00,
2012-03-01 19:10:00,70.3,40.7,29.62,SSE,150,0.0,0.0,34,0.00,,,0.00,VWS V13.01,2012-03-02 01:10:00,
2012-03-01 19:15:00,69.6,42.2,29.59,SSE,158,0.0,0.0,37,0.00,,,0.00,VWS V13.01,2012-03-02 01:15:00,
2012-03-01 19:20:00,68.4,41.1,29.59,NE,43,0.0,0.0,37,0.00,,,0.00,VWS V13.01,2012-03-02 01:20:00,
2012-03-01 19:25:00,67.6,41.2,29.59,NE,49,2.2,2.7,38,0.00,,,0.00,VWS V13.01,2012-03-02 01:25:00,
2012-03-01 19:30:00,67.3,40.8,29.59,NE,42,0.0,0.0,38,0.00,,,0.00,VWS V13.01,2012-03-02 01:30:00,
2012-03-01 19:36:00,65.8,40.9,29.59,NNW,341,2.7,3.1,40,0.00,,,0.00,VWS V13.01,2012-03-02 01:36:00,
2012-03-01 19:41:00,63.9,40.3,29.59,NNW,345,2.7,3.1,42,0.00,,,0.00,VWS V13.01,2012-03-02 01:41:00,
2012-03-01 19:46:00,62.8,39.4,29.62,North,6,2.7,2.7,42,0.00,,,0.00,VWS V13.01,2012-03-02 01:46:00,
2012-03-01 19:51:00,62.6,40.4,29.62,NNE,33,3.1,3.1,44,0.00,,,0.00,VWS V13.01,2012-03-02 01:51:00,
2012-03-01 19:56:00,62.2,41.8,29.62,NNE,33,2.2,2.2,47,0.00,,,0.00,VWS V13.01,2012-03-02 01:56:00,
2012-03-01 20:01:00,61.2,42.4,29.62,NNE,32,2.2,2.2,50,0.00,,,0.00,VWS V13.01,2012-03-02 02:01:00,
2012-03-01 20:06:00,60.1,41.9,29.62,NNE,33,2.7,2.7,51,0.00,,,0.00,VWS V13.01,2012-03-02 02:06:00,
2012-03-01 20:11:00,59.7,41.6,29.62,NNE,33,2.7,3.1,51,0.00,,,0.00,VWS V13.01,2012-03-02 02:11:00,
2012-03-01 20:16:00,59.2,41.6,29.62,NNE,33,0.0,2.2,52,0.00,,,0.00,VWS V13.01,2012-03-02 02:16:00,
2012-03-01 20:21:00,58.8,41.7,29.62,NNE,33,0.0,2.7,53,0.00,,,0.00,VWS V13.01,2012-03-02 02:21:00,
2012-03-01 20:26:00,58.5,41.4,29.62,NE,45,2.7,2.7,53,0.00,,,0.00,VWS V13.01,2012-03-02 02:26:00,
2012-03-01 20:31:00,58.5,41.4,29.62,NE,42,3.1,3.1,53,0.00,,,0.00,VWS V13.01,2012-03-02 02:31:00,
2012-03-01 20:36:00,58.5,42.4,29.62,NNE,13,2.7,2.7,55,0.00,,,0.00,VWS V13.01,2012-03-02 02:36:00,
2012-03-01 20:41:00,57.9,41.9,29.62,North,5,2.7,2.7,55,0.00,,,0.00,VWS V13.01,2012-03-02 02:41:00,
2012-03-01 20:46:00,57.4,42.3,29.62,North,6,0.0,0.0,57,0.00,,,0.00,VWS V13.01,2012-03-02 02:46:00,
2012-03-01 20:51:00,57.0,42.0,29.62,North,3,0.0,0.0,57,0.00,,,0.00,VWS V13.01,2012-03-02 02:51:00,
2012-03-01 20:56:00,56.7,42.1,29.62,North,2,2.2,2.2,58,0.00,,,0.00,VWS V13.01,2012-03-02 02:56:00,
2012-03-01 21:01:00,56.3,42.6,29.62,North,3,2.2,2.2,60,0.00,,,0.00,VWS V13.01,2012-03-02 03:01:00,
2012-03-01 21:06:00,55.9,42.3,29.62,North,3,0.0,2.2,60,0.00,,,0.00,VWS V13.01,2012-03-02 03:06:00,
2012-03-01 21:11:00,55.8,43.0,29.62,North,2,0.0,0.0,62,0.00,,,0.00,VWS V13.01,2012-03-02 03:11:00,
2012-03-01 21:16:00,55.6,41.9,29.62,North,2,0.0,0.0,60,0.00,,,0.00,VWS V13.01,2012-03-02 03:16:00,
2012-03-01 21:21:00,55.8,42.5,29.62,NE,34,3.1,3.1,61,0.00,,,0.00,VWS V13.01,2012-03-02 03:21:00,
2012-03-01 21:26:00,55.8,43.0,29.62,NE,34,2.7,2.7,62,0.00,,,0.00,VWS V13.01,2012-03-02 03:26:00,
2012-03-01 21:31:00,55.4,42.6,29.62,NNE,33,2.7,2.7,62,0.00,,,0.00,VWS V13.01,2012-03-02 03:31:00,
2012-03-01 21:36:00,55.2,42.4,29.62,NE,37,2.7,2.7,62,0.00,,,0.00,VWS V13.01,2012-03-02 03:36:00,
2012-03-01 21:41:00,55.0,42.7,29.62,North,359,0.0,0.0,63,0.00,,,0.00,VWS V13.01,2012-03-02 03:41:00,
2012-03-01 21:46:00,54.9,42.5,29.62,NNE,26,2.7,2.7,63,0.00,,,0.00,VWS V13.01,2012-03-02 03:46:00,
2012-03-01 21:51:00,54.9,42.9,29.62,NNE,23,0.0,2.2,64,0.00,,,0.00,VWS V13.01,2012-03-02 03:51:00,
2012-03-01 21:56:00,54.5,42.6,29.62,NE,46,0.0,0.0,64,0.00,,,0.00,VWS V13.01,2012-03-02 03:56:00,
2012-03-01 22:01:00,54.3,43.2,29.62,NNE,27,0.0,0.0,66,0.00,,,0.00,VWS V13.01,2012-03-02 04:01:00,
2012-03-01 22:06:00,54.1,43.4,29.62,NNE,28,2.2,2.2,67,0.00,,,0.00,VWS V13.01,2012-03-02 04:06:00,
2012-03-01 22:11:00,54.1,43.0,29.62,NE,48,3.6,3.6,66,0.00,,,0.00,VWS V13.01,2012-03-02 04:11:00,
2012-03-01 22:16:00,54.1,43.0,29.62,NE,48,0.0,0.0,66,0.00,,,0.00,VWS V13.01,2012-03-02 04:16:00,
2012-03-01 22:21:00,54.3,43.2,29.62,NE,48,0.0,0.0,66,0.00,,,0.00,VWS V13.01,2012-03-02 04:21:00,
2012-03-01 22:26:00,54.1,43.4,29.62,NNW,328,0.0,0.0,67,0.00,,,0.00,VWS V13.01,2012-03-02 04:26:00,
2012-03-01 22:31:00,54.0,43.3,29.59,NW,313,0.0,0.0,67,0.00,,,0.00,VWS V13.01,2012-03-02 04:31:00,
2012-03-01 22:36:00,54.0,43.3,29.59,North,7,0.0,0.0,67,0.00,,,0.00,VWS V13.01,2012-03-02 04:36:00,
2012-03-01 22:41:00,53.8,43.5,29.59,NNE,14,0.0,0.0,68,0.00,,,0.00,VWS V13.01,2012-03-02 04:41:00,
2012-03-01 22:46:00,53.6,43.7,29.59,NE,55,0.0,0.0,69,0.00,,,0.00,VWS V13.01,2012-03-02 04:46:00,
2012-03-01 22:51:00,53.2,43.7,29.59,NE,56,3.1,3.1,70,0.00,,,0.00,VWS V13.01,2012-03-02 04:51:00,
2012-03-01 22:56:00,53.2,43.3,29.59,NE,53,3.1,3.1,69,0.00,,,0.00,VWS V13.01,2012-03-02 04:56:00,
2012-03-01 23:00:00,53.4,43.5,29.59,NE,44,2.2,2.2,69,0.00,,,0.00,VWS V13.01,2012-03-02 05:00:00,
2012-03-01 23:05:00,54.0,43.7,29.59,NE,36,2.7,2.7,68,0.00,,,0.00,VWS V13.01,2012-03-02 05:05:00,
2012-03-01 23:10:00,54.0,44.0,29.59,North,7,2.2,2.2,69,0.00,,,0.00,VWS V13.01,2012-03-02 05:10:00,
2012-03-01 23:15:00,53.6,44.1,29.59,NNE,24,3.1,3.1,70,0.00,,,0.00,VWS V13.01,2012-03-02 05:15:00,
2012-03-01 23:20:00,53.6,44.4,29.59,North,11,0.0,2.2,71,0.00,,,0.00,VWS V13.01,2012-03-02 05:20:00,
2012-03-01 23:25:00,53.4,44.3,29.59,NNE,15,2.7,2.7,71,0.00,,,0.00,VWS V13.01,2012-03-02 05:25:00,
2012-03-01 23:30:00,53.6,44.1,29.56,NE,34,2.7,2.7,70,0.00,,,0.00,VWS V13.01,2012-03-02 05:30:00,
2012-03-01 23:35:00,53.8,44.2,29.56,North,11,2.2,2.7,70,0.00,,,0.00,VWS V13.01,2012-03-02 05:35:00,
2012-03-01 23:40:00,53.6,44.4,29.56,NNE,18,0.0,0.0,71,0.00,,,0.00,VWS V13.01,2012-03-02 05:40:00,
2012-03-01 23:46:00,53.4,44.6,29.56,ENE,61,0.0,0.0,72,0.00,,,0.00,VWS V13.01,2012-03-02 05:46:00,
2012-03-01 23:51:00,53.6,44.1,29.56,NNE,31,4.9,4.9,70,0.00,,,0.00,VWS V13.01,2012-03-02 05:51:00,
2012-03-01 23:56:00,53.4,44.3,29.56,NE,46,2.2,2.2,71,0.00,,,0.00,VWS V13.01,2012-03-02 05:56:00,